Time,TemperatureF,DewpointF,PressureIn,WindDirection,WindDirectionDegrees,WindSpeedMPH,WindSpeedGustMPH,Humidity,HourlyPrecipIn,Conditions,Clouds,dailyrainin,SoftwareType,DateUTC
2013-04-06 00:00:00,59.0,56.6,30.02,NNE,13,0.0,0.0,92,0.00,,,0.00,VWS V14.01,2013-04-06 04:00:00,
2013-04-06 00:05:00,58.7,56.3,30.02,North,352,0.0,0.0,92,0.00,,,0.00,VWS V14.01,2013-04-06 04:05:00,
2013-04-06 00:10:00,58.4,56.0,30.02,NNE,18,0.0,3.3,92,0.00,,,0.00,VWS V14.01,2013-04-06 04:10:00,
2013-04-06 00:15:00,58.3,56.0,30.02,NNE,18,0.0,0.0,92,0.00,,,0.00,VWS V14.01,2013-04-06 04:15:00,
2013-04-06 00:20:00,58.3,56.0,30.02,NNE,18,0.0,0.0,92,0.00,,,0.00,VWS V14.01,2013-04-06 04:20:00,
2013-04-06 00:25:00,58.3,56.0,30.02,North,359,0.0,3.1,92,0.00,,,0.00,VWS V14.01,2013-04-06 04:25:00,
2013-04-06 00:30:00,58.3,56.0,30.02,NE,44,0.0,0.0,92,0.00,,,0.00,VWS V14.01,2013-04-06 04:30:00,
2013-04-06 00:35:00,58.4,56.2,30.03,NE,44,0.0,2.9,92,0.00,,,0.00,VWS V14.01,2013-04-06 04:35:00,
2013-04-06 00:40:00,58.4,56.2,30.03,NNW,340,0.0,0.0,92,0.00,,,0.00,VWS V14.01,2013-04-06 04:40:00,
2013-04-06 00:45:00,58.4,56.2,30.03,NNW,340,0.0,0.0,92,0.00,,,0.00,VWS V14.01,2013-04-06 04:45:00,
2013-04-06 00:50:00,58.3,56.1,30.03,NNW,340,0.0,0.0,92,0.00,,,0.00,VWS V14.01,2013-04-06 04:50:00,
2013-04-06 00:55:00,58.5,56.2,30.03,NNW,343,0.0,0.0,92,0.00,,,0.00,VWS V14.01,2013-04-06 04:55:00,
2013-04-06 01:00:00,58.7,56.4,30.03,NNW,343,0.0,0.0,92,0.00,,,0.00,VWS V14.01,2013-04-06 05:00:00,
2013-04-06 01:05:00,58.7,56.3,30.03,NNW,343,0.0,0.0,92,0.00,,,0.00,VWS V14.01,2013-04-06 05:05:00,
2013-04-06 01:10:00,58.7,56.2,30.03,NNW,343,0.0,0.0,91,0.00,,,0.00,VWS V14.01,2013-04-06 05:10:00,
2013-04-06 01:15:00,58.9,56.4,30.03,NNW,343,0.0,0.0,92,0.00,,,0.00,VWS V14.01,2013-04-06 05:15:00,
2013-04-06 01:20:00,58.7,56.2,30.03,ENE,68,0.0,2.8,91,0.00,,,0.00,VWS V14.01,2013-04-06 05:20:00,
2013-04-06 01:25:00,58.8,56.3,30.03,ENE,68,0.0,0.0,91,0.00,,,0.00,VWS V14.01,2013-04-06 05:25:00,
2013-04-06 01:30:00,58.9,56.3,30.03,ENE,68,0.0,0.0,91,0.00,,,0.00,VWS V14.01,2013-04-06 05:30:00,
2013-04-06 01:35:00,58.9,56.3,30.03,ENE,68,0.0,0.0,91,0.00,,,0.00,VWS V14.01,2013-04-06 05:35:00,
2013-04-06 01:40:00,58.9,56.1,30.03,North,359,0.0,0.0,90,0.00,,,0.00,VWS V14.01,2013-04-06 05:40:00,
2013-04-06 01:45:00,58.8,56.1,30.03,North,359,0.0,0.0,91,0.00,,,0.00,VWS V14.01,2013-04-06 05:45:00,
2013-04-06 01:50:00,58.9,56.2,30.03,North,359,0.0,2.4,91,0.00,,,0.00,VWS V14.01,2013-04-06 05:50:00,
2013-04-06 01:55:00,58.8,56.2,30.03,WNW,292,0.0,3.0,91,0.00,,,0.00,VWS V14.01,2013-04-06 05:55:00,
2013-04-06 02:00:00,58.7,56.0,30.03,NNW,328,0.0,5.8,91,0.00,,,0.00,VWS V14.01,2013-04-06 06:00:00,
2013-04-06 02:05:00,58.7,56.0,30.03,NNW,343,0.0,3.0,91,0.00,,,0.00,VWS V14.01,2013-04-06 06:05:00,
2013-04-06 02:10:00,58.6,55.9,30.03,NNW,347,0.0,0.0,91,0.00,,,0.00,VWS V14.01,2013-04-06 06:10:00,
2013-04-06 02:15:00,58.8,56.1,30.03,NNW,347,0.0,0.0,91,0.00,,,0.00,VWS V14.01,2013-04-06 06:15:00,
2013-04-06 02:20:00,58.4,55.7,30.03,NNW,347,0.0,0.0,91,0.00,,,0.00,VWS V14.01,2013-04-06 06:20:00,
2013-04-06 02:25:00,58.6,55.9,30.03,NNW,347,0.0,0.0,91,0.00,,,0.00,VWS V14.01,2013-04-06 06:25:00,
2013-04-06 02:30:00,58.6,55.9,30.02,NNW,347,0.0,0.0,91,0.00,,,0.00,VWS V14.01,2013-04-06 06:30:00,
2013-04-06 02:35:00,58.5,55.7,30.03,NW,316,0.0,3.0,90,0.00,,,0.00,VWS V14.01,2013-04-06 06:35:00,
2013-04-06 02:40:00,58.6,55.8,30.03,NNW,333,0.0,0.0,90,0.00,,,0.00,VWS V14.01,2013-04-06 06:40:00,
2013-04-06 02:45:00,58.7,55.8,30.02,NNW,333,0.0,0.0,90,0.00,,,0.00,VWS V14.01,2013-04-06 06:45:00,
2013-04-06 02:50:00,58.4,55.6,30.02,WNW,300,0.0,0.0,90,0.00,,,0.00,VWS V14.01,2013-04-06 06:50:00,
2013-04-06 02:55:00,58.5,55.7,30.02,WNW,300,0.0,0.0,90,0.00,,,0.00,VWS V14.01,2013-04-06 06:55:00,
2013-04-06 03:00:00,58.6,55.7,30.02,NW,325,5.9,9.5,90,0.00,,,0.00,VWS V14.01,2013-04-06 07:00:00,
2013-04-06 03:05:00,58.4,55.5,30.02,North,359,0.0,2.6,90,0.00,,,0.00,VWS V14.01,2013-04-06 07:05:00,
2013-04-06 03:10:00,58.4,55.5,30.02,North,359,0.0,0.0,90,0.00,,,0.00,VWS V14.01,2013-04-06 07:10:00,
2013-04-06 03:15:00,58.4,55.4,30.02,North,359,0.0,0.0,90,0.00,,,0.00,VWS V14.01,2013-04-06 07:15:00,
2013-04-06 03:20:00,58.4,55.3,30.02,North,359,0.0,0.0,90,0.00,,,0.00,VWS V14.01,2013-04-06 07:20:00,
2013-04-06 03:25:00,58.3,55.3,30.02,North,359,0.0,0.0,90,0.00,,,0.00,VWS V14.01,2013-04-06 07:25:00,
2013-04-06 03:31:00,58.3,55.2,30.02,North,359,0.0,0.0,90,0.00,,,0.00,VWS V14.01,2013-04-06 07:31:00,
2013-04-06 03:36:00,58.1,55.1,30.02,North,359,0.0,0.0,90,0.00,,,0.00,VWS V14.01,2013-04-06 07:36:00,
2013-04-06 03:41:00,58.1,55.1,30.02,North,359,0.0,0.0,90,0.00,,,0.00,VWS V14.01,2013-04-06 07:41:00,
2013-04-06 03:46:00,58.0,55.0,30.02,North,359,0.0,0.0,90,0.00,,,0.00,VWS V14.01,2013-04-06 07:46:00,
2013-04-06 03:51:00,58.0,55.0,30.02,North,359,0.0,0.0,90,0.00,,,0.00,VWS V14.01,2013-04-06 07:51:00,
2013-04-06 03:57:00,57.9,54.9,30.02,North,359,0.0,0.0,90,0.00,,,0.00,VWS V14.01,2013-04-06 07:57:00,
2013-04-06 04:02:00,57.9,54.9,30.02,North,359,0.0,0.0,90,0.00,,,0.00,VWS V14.01,2013-04-06 08:02:00,
2013-04-06 04:07:00,57.8,54.8,30.02,North,359,0.0,0.0,90,0.00,,,0.00,VWS V14.01,2013-04-06 08:07:00,
2013-04-06 04:12:00,57.8,54.8,30.02,North,359,0.0,0.0,90,0.00,,,0.00,VWS V14.01,2013-04-06 08:12:00,
2013-04-06 04:17:00,57.7,54.8,30.01,North,359,0.0,0.0,90,0.00,,,0.00,VWS V14.01,2013-04-06 08:17:00,
2013-04-06 04:22:00,57.7,54.8,30.01,North,359,0.0,0.0,90,0.00,,,0.00,VWS V14.01,2013-04-06 08:22:00,
2013-04-06 04:27:00,57.7,54.8,30.01,North,359,0.0,0.0,90,0.00,,,0.00,VWS V14.01,2013-04-06 08:27:00,
2013-04-06 04:32:00,57.6,54.7,30.01,North,359,0.0,0.0,90,0.00,,,0.00,VWS V14.01,2013-04-06 08:32:00,
2013-04-06 04:37:00,57.5,54.7,30.02,North,359,0.0,0.0,90,0.00,,,0.00,VWS V14.01,2013-04-06 08:37:00,
2013-04-06 04:42:00,57.4,54.6,30.02,North,359,0.0,0.0,90,0.00,,,0.00,VWS V14.01,2013-04-06 08:42:00,
2013-04-06 04:47:00,57.4,54.6,30.02,North,359,0.0,0.0,90,0.00,,,0.00,VWS V14.01,2013-04-06 08:47:00,
2013-04-06 04:52:00,57.3,54.5,30.02,North,359,0.0,0.0,90,0.00,,,0.00,VWS V14.01,2013-04-06 08:52:00,
2013-04-06 04:57:00,57.2,54.4,30.03,NNW,347,0.0,0.0,90,0.00,,,0.00,VWS V14.01,2013-04-06 08:57:00,
2013-04-06 05:02:00,57.2,54.5,30.03,NNW,347,0.0,0.0,90,0.00,,,0.00,VWS V14.01,2013-04-06 09:02:00,
2013-04-06 05:07:00,57.1,54.3,30.03,NNW,347,0.0,0.0,90,0.00,,,0.00,VWS V14.01,2013-04-06 09:07:00,
2013-04-06 05:12:00,57.1,54.3,30.03,NNW,347,0.0,0.0,90,0.00,,,0.00,VWS V14.01,2013-04-06 09:12:00,
2013-04-06 05:17:00,57.1,54.3,30.03,NNW,347,0.0,0.0,90,0.00,,,0.00,VWS V14.01,2013-04-06 09:17:00,
2013-04-06 05:22:00,57.0,54.3,30.03,NNW,347,0.0,0.0,91,0.00,,,0.00,VWS V14.01,2013-04-06 09:22:00,
2013-04-06 05:27:00,56.9,54.2,30.03,NNW,345,0.0,0.0,91,0.00,,,0.00,VWS V14.01,2013-04-06 09:27:00,
2013-04-06 05:32:00,56.8,54.1,30.02,NNW,345,0.0,0.0,91,0.00,,,0.00,VWS V14.01,2013-04-06 09:32:00,
2013-04-06 05:37:00,56.8,54.1,30.02,NNW,345,0.0,0.0,91,0.00,,,0.00,VWS V14.01,2013-04-06 09:37:00,
2013-04-06 05:42:00,56.8,54.1,30.03,NNW,345,0.0,0.0,90,0.00,,,0.00,VWS V14.01,2013-04-06 09:42:00,
2013-04-06 05:47:00,56.7,54.0,30.03,NNW,345,0.0,0.0,91,0.00,,,0.00,VWS V14.01,2013-04-06 09:47:00,
2013-04-06 05:52:00,56.6,53.9,30.03,NNW,345,0.0,0.0,91,0.00,,,0.00,VWS V14.01,2013-04-06 09:52:00,
2013-04-06 05:57:00,56.4,53.8,30.04,North,359,3.3,3.3,91,0.00,,,0.00,VWS V14.01,2013-04-06 09:57:00,
2013-04-06 06:02:00,56.3,53.7,30.04,NW,315,0.0,6.8,91,0.00,,,0.00,VWS V14.01,2013-04-06 10:02:00,
2013-04-06 06:07:00,56.4,53.8,30.04,NNW,343,0.0,0.0,91,0.00,,,0.00,VWS V14.01,2013-04-06 10:07:00,
2013-04-06 06:12:00,56.3,53.7,30.05,NNW,328,0.0,0.0,91,0.00,,,0.00,VWS V14.01,2013-04-06 10:12:00,
2013-04-06 06:17:00,56.3,53.6,30.05,NNW,328,0.0,0.0,91,0.00,,,0.00,VWS V14.01,2013-04-06 10:17:00,
2013-04-06 06:22:00,56.2,53.5,30.05,NNW,328,0.0,0.0,91,0.00,,,0.00,VWS V14.01,2013-04-06 10:22:00,
2013-04-06 06:27:00,56.2,53.6,30.05,North,4,0.0,0.0,91,0.00,,,0.00,VWS V14.01,2013-04-06 10:27:00,
2013-04-06 06:32:00,56.2,53.5,30.05,North,4,0.0,0.0,91,0.00,,,0.00,VWS V14.01,2013-04-06 10:32:00,
2013-04-06 06:37:00,56.2,53.6,30.06,North,4,0.0,0.0,91,0.00,,,0.00,VWS V14.01,2013-04-06 10:37:00,
2013-04-06 06:42:00,56.2,53.6,30.06,North,4,0.0,0.0,91,0.00,,,0.00,VWS V14.01,2013-04-06 10:42:00,
2013-04-06 06:47:00,56.2,53.5,30.06,NNW,347,0.0,2.6,91,0.00,,,0.00,VWS V14.01,2013-04-06 10:47:00,
2013-04-06 06:52:00,56.1,53.5,30.07,North,3,0.0,3.2,91,0.01,,,0.01,VWS V14.01,2013-04-06 10:52:00,
2013-04-06 06:57:00,56.1,53.5,30.07,North,3,0.0,0.0,91,0.01,,,0.01,VWS V14.01,2013-04-06 10:57:00,
2013-04-06 07:02:00,56.0,53.4,30.07,NW,309,0.0,0.0,91,0.01,,,0.01,VWS V14.01,2013-04-06 11:02:00,
2013-04-06 07:07:00,55.9,53.4,30.07,NNW,335,0.0,0.0,91,0.01,,,0.01,VWS V14.01,2013-04-06 11:07:00,
2013-04-06 07:12:00,56.0,53.5,30.08,North,359,0.0,5.7,91,0.01,,,0.01,VWS V14.01,2013-04-06 11:12:00,
2013-04-06 07:17:00,55.8,53.3,30.07,North,11,4.4,6.2,91,0.01,,,0.01,VWS V14.01,2013-04-06 11:17:00,
2013-04-06 07:22:00,55.8,53.4,30.07,North,4,0.0,5.0,92,0.01,,,0.01,VWS V14.01,2013-04-06 11:22:00,
2013-04-06 07:27:00,55.9,53.4,30.07,North,4,0.0,0.0,91,0.01,,,0.01,VWS V14.01,2013-04-06 11:27:00,
2013-04-06 07:32:00,55.8,53.4,30.07,North,4,0.0,0.0,92,0.01,,,0.01,VWS V14.01,2013-04-06 11:32:00,
2013-04-06 07:33:00,55.9,53.5,30.07,North,4,0.0,0.0,92,0.01,,,0.01,VWS V14.01,2013-04-06 11:33:00,
2013-04-06 07:38:00,55.8,53.4,30.07,North,4,0.0,1.9,92,0.01,,,0.01,VWS V14.01,2013-04-06 11:38:00,
2013-04-06 07:43:00,55.9,53.5,30.07,NNW,340,0.0,0.0,92,0.01,,,0.01,VWS V14.01,2013-04-06 11:43:00,
2013-04-06 07:48:00,55.9,53.5,30.07,NNW,340,0.0,0.0,92,0.01,,,0.01,VWS V14.01,2013-04-06 11:48:00,
2013-04-06 07:53:00,55.9,53.5,30.07,North,359,0.0,0.0,92,0.01,,,0.01,VWS V14.01,2013-04-06 11:53:00,
2013-04-06 07:58:00,56.0,53.6,30.07,North,359,0.0,0.0,92,0.00,,,0.01,VWS V14.01,2013-04-06 11:58:00,
2013-04-06 08:03:00,56.1,53.6,30.07,North,359,0.0,0.0,91,0.00,,,0.01,VWS V14.01,2013-04-06 12:03:00,
2013-04-06 08:08:00,56.4,54.0,30.07,North,359,0.0,0.0,92,0.00,,,0.01,VWS V14.01,2013-04-06 12:08:00,
2013-04-06 08:13:00,56.5,54.0,30.07,North,359,0.0,0.0,91,0.00,,,0.01,VWS V14.01,2013-04-06 12:13:00,
2013-04-06 08:18:00,56.7,54.1,30.07,North,359,0.0,0.0,91,0.00,,,0.01,VWS V14.01,2013-04-06 12:18:00,
2013-04-06 08:23:00,56.9,54.3,30.07,North,359,0.0,0.0,91,0.00,,,0.01,VWS V14.01,2013-04-06 12:23:00,
2013-04-06 08:28:00,57.1,54.4,30.08,North,359,0.0,0.0,91,0.00,,,0.01,VWS V14.01,2013-04-06 12:28:00,
2013-04-06 08:33:00,57.4,54.7,30.08,North,359,0.0,0.0,91,0.00,,,0.01,VWS V14.01,2013-04-06 12:33:00,
2013-04-06 08:38:00,57.7,54.9,30.08,North,359,0.0,0.0,90,0.00,,,0.01,VWS V14.01,2013-04-06 12:38:00,
2013-04-06 08:43:00,57.8,54.9,30.08,WNW,290,0.0,0.0,90,0.00,,,0.01,VWS V14.01,2013-04-06 12:43:00,
2013-04-06 08:48:00,58.0,55.1,30.08,North,10,0.0,5.6,90,0.00,,,0.01,VWS V14.01,2013-04-06 12:48:00,
2013-04-06 08:53:00,58.3,55.3,30.08,North,1,0.0,4.3,90,0.00,,,0.01,VWS V14.01,2013-04-06 12:53:00,
2013-04-06 08:58:00,58.9,55.7,30.08,North,1,0.0,0.0,89,0.00,,,0.01,VWS V14.01,2013-04-06 12:58:00,
2013-04-06 09:03:00,59.1,55.8,30.09,North,1,0.0,0.0,89,0.00,,,0.01,VWS V14.01,2013-04-06 13:03:00,
2013-04-06 09:08:00,59.7,56.0,30.09,North,1,0.0,0.0,88,0.00,,,0.01,VWS V14.01,2013-04-06 13:08:00,
2013-04-06 09:13:00,60.0,55.8,30.09,NW,309,0.0,5.5,86,0.00,,,0.01,VWS V14.01,2013-04-06 13:13:00,
2013-04-06 09:18:00,60.2,55.7,30.09,North,11,0.0,7.2,85,0.00,,,0.01,VWS V14.01,2013-04-06 13:18:00,
2013-04-06 09:23:00,60.9,56.1,30.10,NW,307,3.4,3.4,84,0.00,,,0.01,VWS V14.01,2013-04-06 13:23:00,
2013-04-06 09:29:00,61.0,55.8,30.10,NNE,15,0.0,0.0,83,0.00,,,0.01,VWS V14.01,2013-04-06 13:29:00,
2013-04-06 09:34:00,62.0,56.7,30.09,North,356,5.0,5.0,83,0.00,,,0.01,VWS V14.01,2013-04-06 13:34:00,
2013-04-06 09:39:00,62.5,56.6,30.10,North,354,0.0,3.2,81,0.00,,,0.01,VWS V14.01,2013-04-06 13:39:00,
2013-04-06 09:44:00,63.2,56.5,30.09,ENE,72,0.0,2.9,79,0.00,,,0.01,VWS V14.01,2013-04-06 13:44:00,
2013-04-06 09:49:00,64.0,57.0,30.09,NE,48,0.0,2.7,78,0.00,,,0.01,VWS V14.01,2013-04-06 13:49:00,
2013-04-06 09:54:00,64.4,57.2,30.09,NE,42,0.0,3.3,78,0.00,,,0.01,VWS V14.01,2013-04-06 13:54:00,
2013-04-06 09:59:00,65.1,56.8,30.09,NNE,25,0.0,3.5,74,0.00,,,0.01,VWS V14.01,2013-04-06 13:59:00,
2013-04-06 10:04:00,65.8,57.3,30.09,ENE,59,2.4,5.2,74,0.00,,,0.01,VWS V14.01,2013-04-06 14:04:00,
2013-04-06 10:09:00,66.0,57.5,30.08,NE,41,0.0,3.2,74,0.00,,,0.01,VWS V14.01,2013-04-06 14:09:00,
2013-04-06 10:14:00,66.5,57.4,30.09,ESE,117,3.2,9.3,72,0.00,,,0.01,VWS V14.01,2013-04-06 14:14:00,
2013-04-06 10:19:00,66.8,57.5,30.09,East,86,4.3,4.7,72,0.00,,,0.01,VWS V14.01,2013-04-06 14:19:00,
2013-04-06 10:24:00,67.7,58.2,30.09,NNE,28,0.0,6.5,72,0.00,,,0.01,VWS V14.01,2013-04-06 14:24:00,
2013-04-06 10:29:00,67.8,58.5,30.09,NNE,30,0.0,0.0,72,0.00,,,0.01,VWS V14.01,2013-04-06 14:29:00,
2013-04-06 10:34:00,68.5,59.3,30.09,East,79,0.0,3.3,72,0.00,,,0.01,VWS V14.01,2013-04-06 14:34:00,
2013-04-06 10:39:00,69.2,59.1,30.10,NE,34,0.0,4.8,70,0.00,,,0.01,VWS V14.01,2013-04-06 14:39:00,
2013-04-06 10:44:00,69.0,59.1,30.10,NE,51,0.0,3.2,71,0.00,,,0.01,VWS V14.01,2013-04-06 14:44:00,
2013-04-06 10:50:00,69.1,59.3,30.10,NE,53,0.0,4.6,71,0.00,,,0.01,VWS V14.01,2013-04-06 14:50:00,
2013-04-06 10:55:00,69.4,60.0,30.10,NE,49,0.0,0.0,72,0.00,,,0.01,VWS V14.01,2013-04-06 14:55:00,
2013-04-06 11:00:00,69.7,59.7,30.10,NE,55,0.0,0.0,71,0.00,,,0.01,VWS V14.01,2013-04-06 15:00:00,
2013-04-06 11:05:00,70.0,60.2,30.10,NE,41,0.0,1.9,71,0.00,,,0.01,VWS V14.01,2013-04-06 15:05:00,
2013-04-06 11:10:00,70.3,59.9,30.10,ENE,69,0.0,5.5,70,0.00,,,0.01,VWS V14.01,2013-04-06 15:10:00,
2013-04-06 11:15:00,70.7,60.2,30.10,North,6,3.2,7.5,70,0.00,,,0.01,VWS V14.01,2013-04-06 15:15:00,
2013-04-06 11:20:00,71.1,59.9,30.10,NNE,15,2.7,3.5,68,0.00,,,0.01,VWS V14.01,2013-04-06 15:20:00,
2013-04-06 11:25:00,71.7,60.2,30.10,NE,46,0.0,5.2,67,0.00,,,0.01,VWS V14.01,2013-04-06 15:25:00,
2013-04-06 11:30:00,71.8,59.8,30.11,NE,41,3.2,6.7,66,0.00,,,0.01,VWS V14.01,2013-04-06 15:30:00,
2013-04-06 11:35:00,72.1,60.3,30.11,North,4,2.9,4.3,66,0.00,,,0.01,VWS V14.01,2013-04-06 15:35:00,
2013-04-06 11:40:00,71.9,60.0,30.11,NE,48,0.0,0.0,66,0.00,,,0.01,VWS V14.01,2013-04-06 15:40:00,
2013-04-06 11:45:00,72.5,59.4,30.11,NNW,343,0.0,4.4,64,0.00,,,0.01,VWS V14.01,2013-04-06 15:45:00,
2013-04-06 11:50:00,72.2,59.5,30.11,NNW,340,5.8,5.8,64,0.00,,,0.01,VWS V14.01,2013-04-06 15:50:00,
2013-04-06 11:55:00,72.4,59.5,30.11,NE,53,4.5,4.9,64,0.00,,,0.01,VWS V14.01,2013-04-06 15:55:00,
2013-04-06 12:00:00,73.0,59.8,30.11,NNE,21,0.0,0.0,63,0.00,,,0.01,VWS V14.01,2013-04-06 16:00:00,
2013-04-06 12:05:00,73.7,60.7,30.10,NW,318,0.0,0.0,64,0.00,,,0.01,VWS V14.01,2013-04-06 16:05:00,
2013-04-06 12:10:00,73.9,59.2,30.11,ENE,76,2.5,5.3,60,0.00,,,0.01,VWS V14.01,2013-04-06 16:10:00,
2013-04-06 12:15:00,73.6,59.6,30.10,ENE,70,0.0,0.0,62,0.00,,,0.01,VWS V14.01,2013-04-06 16:15:00,
2013-04-06 12:20:00,74.2,60.2,30.11,ENE,76,0.0,3.0,62,0.00,,,0.01,VWS V14.01,2013-04-06 16:20:00,
2013-04-06 12:25:00,74.7,60.0,30.10,North,1,0.0,3.2,60,0.00,,,0.01,VWS V14.01,2013-04-06 16:25:00,
2013-04-06 12:30:00,74.7,59.9,30.10,ENE,68,0.0,5.4,60,0.00,,,0.01,VWS V14.01,2013-04-06 16:30:00,
2013-04-06 12:35:00,75.1,59.9,30.10,ENE,59,3.2,4.4,59,0.00,,,0.01,VWS V14.01,2013-04-06 16:35:00,
2013-04-06 12:40:00,75.4,60.9,30.10,NW,304,0.0,4.5,61,0.00,,,0.01,VWS V14.01,2013-04-06 16:40:00,
2013-04-06 12:45:00,75.9,61.0,30.10,East,93,3.3,4.3,60,0.00,,,0.01,VWS V14.01,2013-04-06 16:45:00,
2013-04-06 12:50:00,76.0,60.8,30.10,ENE,58,0.0,0.0,59,0.00,,,0.01,VWS V14.01,2013-04-06 16:50:00,
2013-04-06 12:55:00,75.7,60.6,30.10,North,0,0.0,0.0,60,0.00,,,0.01,VWS V14.01,2013-04-06 16:55:00,
2013-04-06 13:00:00,75.7,60.6,30.09,ENE,62,0.0,4.4,60,0.00,,,0.01,VWS V14.01,2013-04-06 17:00:00,
2013-04-06 13:05:00,76.1,60.2,30.09,ESE,111,3.2,6.6,58,0.00,,,0.01,VWS V14.01,2013-04-06 17:05:00,
2013-04-06 13:10:00,76.0,60.1,30.09,ESE,114,0.0,2.3,58,0.00,,,0.01,VWS V14.01,2013-04-06 17:10:00,
2013-04-06 13:15:00,75.8,60.3,30.08,ESE,120,0.0,0.0,59,0.00,,,0.01,VWS V14.01,2013-04-06 17:15:00,
2013-04-06 13:20:00,76.2,60.6,30.08,NE,38,2.2,5.3,58,0.00,,,0.01,VWS V14.01,2013-04-06 17:20:00,
2013-04-06 13:25:00,77.1,61.5,30.08,ESE,112,0.0,4.8,59,0.00,,,0.01,VWS V14.01,2013-04-06 17:25:00,
2013-04-06 13:30:00,78.0,61.2,30.08,NE,55,0.0,0.0,56,0.00,,,0.01,VWS V14.01,2013-04-06 17:30:00,
2013-04-06 13:35:00,78.4,61.5,30.08,ENE,65,3.2,5.8,56,0.00,,,0.01,VWS V14.01,2013-04-06 17:35:00,
2013-04-06 13:40:00,77.8,61.2,30.08,ESE,108,0.0,4.8,57,0.00,,,0.01,VWS V14.01,2013-04-06 17:40:00,
2013-04-06 13:45:00,77.7,61.2,30.08,NE,37,0.0,0.0,57,0.00,,,0.01,VWS V14.01,2013-04-06 17:45:00,
2013-04-06 13:50:00,78.2,61.5,30.08,ESE,103,3.2,3.3,57,0.00,,,0.01,VWS V14.01,2013-04-06 17:50:00,
2013-04-06 13:55:00,77.7,60.4,30.08,ESE,103,0.0,3.3,55,0.00,,,0.01,VWS V14.01,2013-04-06 17:55:00,
2013-04-06 14:00:00,76.8,60.4,30.08,East,93,0.0,5.8,57,0.00,,,0.01,VWS V14.01,2013-04-06 18:00:00,
2013-04-06 14:05:00,76.7,61.4,30.08,ENE,65,3.3,3.3,59,0.00,,,0.01,VWS V14.01,2013-04-06 18:05:00,
2013-04-06 14:10:00,77.0,61.3,30.08,NE,53,3.3,3.4,58,0.00,,,0.01,VWS V14.01,2013-04-06 18:10:00,
2013-04-06 14:15:00,77.0,61.8,30.08,ESE,104,0.0,5.2,60,0.00,,,0.01,VWS V14.01,2013-04-06 18:15:00,
2013-04-06 14:20:00,77.3,61.0,30.08,ENE,66,0.0,5.4,57,0.00,,,0.01,VWS V14.01,2013-04-06 18:20:00,
2013-04-06 14:25:00,77.7,61.6,30.08,ENE,65,0.0,0.0,58,0.00,,,0.01,VWS V14.01,2013-04-06 18:25:00,
2013-04-06 14:30:00,77.0,61.5,30.08,ENE,73,0.0,0.0,59,0.00,,,0.01,VWS V14.01,2013-04-06 18:30:00,
2013-04-06 14:35:00,77.5,60.7,30.08,ENE,62,0.0,0.0,56,0.00,,,0.01,VWS V14.01,2013-04-06 18:35:00,
2013-04-06 14:40:00,77.3,61.5,30.08,East,86,0.0,0.0,58,0.00,,,0.01,VWS V14.01,2013-04-06 18:40:00,
2013-04-06 14:45:00,77.0,61.2,30.08,NNE,20,0.0,9.5,58,0.00,,,0.01,VWS V14.01,2013-04-06 18:45:00,
2013-04-06 14:50:00,77.1,61.3,30.09,ENE,62,2.7,4.7,58,0.00,,,0.01,VWS V14.01,2013-04-06 18:50:00,
2013-04-06 14:55:00,76.6,60.7,30.09,NNE,15,0.0,5.9,58,0.00,,,0.01,VWS V14.01,2013-04-06 18:55:00,
2013-04-06 15:00:00,76.9,61.2,30.09,ENE,68,0.0,4.6,58,0.00,,,0.01,VWS V14.01,2013-04-06 19:00:00,
2013-04-06 15:05:00,76.5,60.5,30.08,NE,44,0.0,0.0,58,0.00,,,0.01,VWS V14.01,2013-04-06 19:05:00,
2013-04-06 15:10:00,77.4,61.8,30.08,NE,44,0.0,0.0,59,0.00,,,0.01,VWS V14.01,2013-04-06 19:10:00,
2013-04-06 15:15:00,77.8,61.7,30.08,ENE,68,0.0,1.4,58,0.00,,,0.01,VWS V14.01,2013-04-06 19:15:00,
2013-04-06 15:20:00,77.7,62.2,30.08,ESE,111,4.3,5.9,59,0.00,,,0.01,VWS V14.01,2013-04-06 19:20:00,
2013-04-06 15:25:00,77.8,61.9,30.08,East,89,2.1,5.9,58,0.00,,,0.01,VWS V14.01,2013-04-06 19:25:00,
2013-04-06 15:30:00,76.9,60.8,30.08,NNE,20,0.0,3.4,58,0.00,,,0.01,VWS V14.01,2013-04-06 19:30:00,
2013-04-06 15:36:00,76.6,61.6,30.08,East,94,0.0,0.0,60,0.00,,,0.01,VWS V14.01,2013-04-06 19:36:00,
2013-04-06 15:41:00,77.2,61.8,30.08,NE,46,0.0,3.2,59,0.00,,,0.01,VWS V14.01,2013-04-06 19:41:00,
2013-04-06 15:46:00,77.1,60.8,30.08,NE,46,0.0,0.0,57,0.00,,,0.01,VWS V14.01,2013-04-06 19:46:00,
2013-04-06 15:51:00,77.1,60.9,30.08,NE,46,0.0,0.0,57,0.00,,,0.01,VWS V14.01,2013-04-06 19:51:00,
2013-04-06 15:56:00,77.3,61.1,30.09,NE,51,2.5,3.2,57,0.00,,,0.01,VWS V14.01,2013-04-06 19:56:00,
2013-04-06 16:02:00,76.7,60.5,30.08,NE,34,0.0,0.0,57,0.00,,,0.01,VWS V14.01,2013-04-06 20:02:00,
2013-04-06 16:07:00,76.7,60.7,30.08,NE,34,0.0,0.0,58,0.00,,,0.01,VWS V14.01,2013-04-06 20:07:00,
2013-04-06 16:12:00,77.5,61.5,30.08,East,90,3.1,4.6,58,0.00,,,0.01,VWS V14.01,2013-04-06 20:12:00,
2013-04-06 16:17:00,77.1,61.0,30.08,NE,56,0.0,0.0,58,0.00,,,0.01,VWS V14.01,2013-04-06 20:17:00,
2013-04-06 16:22:00,76.4,61.2,30.08,NE,56,0.0,0.0,59,0.00,,,0.01,VWS V14.01,2013-04-06 20:22:00,
2013-04-06 16:27:00,76.3,61.4,30.08,NE,56,0.0,0.0,60,0.00,,,0.01,VWS V14.01,2013-04-06 20:27:00,
2013-04-06 16:32:00,76.7,61.2,30.08,ENE,66,3.0,4.5,59,0.00,,,0.01,VWS V14.01,2013-04-06 20:32:00,
2013-04-06 16:37:00,76.3,60.9,30.08,East,90,0.0,0.0,59,0.00,,,0.01,VWS V14.01,2013-04-06 20:37:00,
2013-04-06 16:42:00,75.7,60.8,30.08,ENE,62,0.0,4.7,60,0.00,,,0.01,VWS V14.01,2013-04-06 20:42:00,
2013-04-06 16:47:00,75.7,61.1,30.08,East,80,0.0,3.1,61,0.00,,,0.01,VWS V14.01,2013-04-06 20:47:00,
2013-04-06 16:52:00,75.7,61.0,30.08,East,80,0.0,0.0,60,0.00,,,0.01,VWS V14.01,2013-04-06 20:52:00,
2013-04-06 16:57:00,75.6,61.2,30.07,East,80,0.0,0.0,61,0.00,,,0.01,VWS V14.01,2013-04-06 20:57:00,
2013-04-06 17:02:00,75.6,61.0,30.08,ENE,72,0.0,4.9,61,0.00,,,0.01,VWS V14.01,2013-04-06 21:02:00,
2013-04-06 17:07:00,76.3,61.3,30.08,NE,49,0.0,3.2,60,0.00,,,0.01,VWS V14.01,2013-04-06 21:07:00,
2013-04-06 17:12:00,76.7,61.9,30.08,NE,49,0.0,0.0,60,0.00,,,0.01,VWS V14.01,2013-04-06 21:12:00,
2013-04-06 17:17:00,77.0,61.3,30.08,NNE,27,0.0,0.0,58,0.00,,,0.01,VWS V14.01,2013-04-06 21:17:00,
2013-04-06 17:22:00,77.1,60.1,30.08,ENE,70,3.2,8.2,56,0.00,,,0.01,VWS V14.01,2013-04-06 21:22:00,
2013-04-06 17:27:00,77.2,61.0,30.08,East,86,0.0,0.0,58,0.00,,,0.01,VWS V14.01,2013-04-06 21:27:00,
2013-04-06 17:32:00,77.3,61.6,30.08,ENE,77,0.0,0.0,58,0.00,,,0.01,VWS V14.01,2013-04-06 21:32:00,
2013-04-06 17:37:00,77.0,60.8,30.08,East,83,0.0,4.1,57,0.00,,,0.01,VWS V14.01,2013-04-06 21:37:00,
2013-04-06 17:42:00,76.7,61.5,30.08,East,94,0.0,0.0,59,0.00,,,0.01,VWS V14.01,2013-04-06 21:42:00,
2013-04-06 17:47:00,76.1,61.1,30.09,East,94,0.0,0.0,60,0.00,,,0.01,VWS V14.01,2013-04-06 21:47:00,
2013-04-06 17:52:00,75.3,60.9,30.09,East,94,0.0,0.0,61,0.00,,,0.01,VWS V14.01,2013-04-06 21:52:00,
2013-04-06 17:57:00,74.7,60.6,30.09,ENE,63,0.0,0.0,62,0.00,,,0.01,VWS V14.01,2013-04-06 21:57:00,
2013-04-06 18:02:00,74.2,60.4,30.09,NE,52,0.0,0.0,62,0.00,,,0.01,VWS V14.01,2013-04-06 22:02:00,
2013-04-06 18:07:00,73.8,60.3,30.09,ENE,72,2.9,2.9,63,0.00,,,0.01,VWS V14.01,2013-04-06 22:07:00,
2013-04-06 18:12:00,73.8,60.4,30.10,NE,49,0.0,0.0,63,0.00,,,0.01,VWS V14.01,2013-04-06 22:12:00,
2013-04-06 18:17:00,73.8,61.0,30.10,NE,37,0.0,4.2,64,0.00,,,0.01,VWS V14.01,2013-04-06 22:17:00,
2013-04-06 18:22:00,74.2,61.1,30.10,NE,37,0.0,0.0,64,0.00,,,0.01,VWS V14.01,2013-04-06 22:22:00,
2013-04-06 18:27:00,74.0,60.9,30.10,NE,37,0.0,0.0,64,0.00,,,0.01,VWS V14.01,2013-04-06 22:27:00,
2013-04-06 18:32:00,73.6,61.2,30.10,NE,37,0.0,0.0,65,0.00,,,0.01,VWS V14.01,2013-04-06 22:32:00,
2013-04-06 18:37:00,73.3,61.1,30.10,NE,37,0.0,0.0,66,0.00,,,0.01,VWS V14.01,2013-04-06 22:37:00,
2013-04-06 18:42:00,73.0,61.0,30.10,East,91,3.2,3.5,66,0.00,,,0.01,VWS V14.01,2013-04-06 22:42:00,
2013-04-06 18:47:00,72.6,61.0,30.10,NE,45,0.0,0.0,67,0.00,,,0.01,VWS V14.01,2013-04-06 22:47:00,
2013-04-06 18:52:00,72.6,61.1,30.10,NE,45,0.0,0.0,67,0.00,,,0.01,VWS V14.01,2013-04-06 22:52:00,
2013-04-06 18:57:00,72.2,60.9,30.10,NE,45,0.0,0.0,68,0.00,,,0.01,VWS V14.01,2013-04-06 22:57:00,
2013-04-06 19:02:00,72.2,61.0,30.10,NE,45,0.0,0.0,68,0.00,,,0.01,VWS V14.01,2013-04-06 23:02:00,
2013-04-06 19:07:00,72.1,61.1,30.10,NE,45,0.0,0.0,68,0.00,,,0.01,VWS V14.01,2013-04-06 23:07:00,
2013-04-06 19:12:00,71.9,60.9,30.11,ENE,60,0.0,3.3,68,0.00,,,0.01,VWS V14.01,2013-04-06 23:12:00,
2013-04-06 19:17:00,71.8,61.2,30.11,ENE,60,0.0,0.0,69,0.00,,,0.01,VWS V14.01,2013-04-06 23:17:00,
2013-04-06 19:22:00,71.5,60.9,30.11,ENE,60,0.0,0.0,69,0.00,,,0.01,VWS V14.01,2013-04-06 23:22:00,
2013-04-06 19:27:00,71.5,61.2,30.11,ENE,60,0.0,0.0,70,0.00,,,0.01,VWS V14.01,2013-04-06 23:27:00,
2013-04-06 19:32:00,71.2,61.0,30.11,ENE,60,0.0,0.0,70,0.00,,,0.01,VWS V14.01,2013-04-06 23:32:00,
2013-04-06 19:37:00,71.0,60.9,30.11,ENE,60,0.0,0.0,70,0.00,,,0.01,VWS V14.01,2013-04-06 23:37:00,
2013-04-06 19:42:00,70.6,60.9,30.11,ENE,60,0.0,0.0,71,0.00,,,0.01,VWS V14.01,2013-04-06 23:42:00,
2013-04-06 19:48:00,70.5,61.0,30.11,ENE,60,0.0,0.0,72,0.00,,,0.01,VWS V14.01,2013-04-06 23:48:00,
2013-04-06 19:53:00,70.0,60.7,30.12,ENE,60,0.0,0.0,72,0.00,,,0.01,VWS V14.01,2013-04-06 23:53:00,
2013-04-06 19:58:00,69.8,60.7,30.12,ENE,60,0.0,0.0,73,0.00,,,0.01,VWS V14.01,2013-04-06 23:58:00,
2013-04-06 20:03:00,69.6,60.7,30.12,ENE,60,0.0,0.0,73,0.00,,,0.01,VWS V14.01,2013-04-07 00:03:00,
2013-04-06 20:08:00,69.4,60.6,30.12,ENE,60,0.0,0.0,74,0.00,,,0.01,VWS V14.01,2013-04-07 00:08:00,
2013-04-06 20:13:00,69.3,60.7,30.12,ENE,60,0.0,0.0,74,0.00,,,0.01,VWS V14.01,2013-04-07 00:13:00,
2013-04-06 20:18:00,69.1,60.6,30.12,ENE,60,0.0,0.0,74,0.00,,,0.01,VWS V14.01,2013-04-07 00:18:00,
2013-04-06 20:23:00,68.8,60.5,30.12,ENE,60,0.0,0.0,75,0.00,,,0.01,VWS V14.01,2013-04-07 00:23:00,
2013-04-06 20:28:00,68.7,60.7,30.12,ENE,60,0.0,0.0,76,0.00,,,0.01,VWS V14.01,2013-04-07 00:28:00,
2013-04-06 20:33:00,68.5,60.5,30.12,ENE,60,0.0,0.0,76,0.00,,,0.01,VWS V14.01,2013-04-07 00:33:00,
2013-04-06 20:38:00,68.1,60.4,30.12,ENE,60,0.0,0.0,76,0.00,,,0.01,VWS V14.01,2013-04-07 00:38:00,
2013-04-06 20:44:00,68.1,60.5,30.13,ENE,60,0.0,0.0,77,0.00,,,0.01,VWS V14.01,2013-04-07 00:44:00,
2013-04-06 20:49:00,67.4,60.1,30.13,ENE,60,0.0,0.0,77,0.00,,,0.01,VWS V14.01,2013-04-07 00:49:00,
2013-04-06 20:54:00,67.4,60.1,30.13,ENE,60,0.0,0.0,78,0.00,,,0.01,VWS V14.01,2013-04-07 00:54:00,
2013-04-06 20:59:00,67.0,59.8,30.13,ENE,60,0.0,0.0,78,0.00,,,0.01,VWS V14.01,2013-04-07 00:59:00,
2013-04-06 21:04:00,67.1,60.1,30.13,ENE,60,0.0,0.0,78,0.00,,,0.01,VWS V14.01,2013-04-07 01:04:00,
2013-04-06 21:09:00,66.9,60.2,30.14,NE,55,0.0,3.2,79,0.00,,,0.01,VWS V14.01,2013-04-07 01:09:00,
2013-04-06 21:14:00,66.3,59.9,30.14,NE,55,0.0,0.0,80,0.00,,,0.01,VWS V14.01,2013-04-07 01:14:00,
2013-04-06 21:19:00,66.2,59.9,30.14,NE,55,0.0,0.0,80,0.00,,,0.01,VWS V14.01,2013-04-07 01:19:00,
2013-04-06 21:24:00,66.1,59.9,30.14,NE,55,0.0,0.0,80,0.00,,,0.01,VWS V14.01,2013-04-07 01:24:00,
2013-04-06 21:29:00,65.7,59.7,30.14,NE,55,0.0,0.0,81,0.00,,,0.01,VWS V14.01,2013-04-07 01:29:00,
2013-04-06 21:34:00,65.6,59.7,30.15,NE,55,0.0,0.0,81,0.00,,,0.01,VWS V14.01,2013-04-07 01:34:00,
2013-04-06 21:39:00,65.6,59.8,30.15,NE,55,0.0,0.0,81,0.00,,,0.01,VWS V14.01,2013-04-07 01:39:00,
2013-04-06 21:44:00,65.5,59.8,30.15,NE,55,0.0,0.0,82,0.00,,,0.01,VWS V14.01,2013-04-07 01:44:00,
2013-04-06 21:50:00,65.2,59.7,30.15,NE,55,0.0,0.0,82,0.00,,,0.01,VWS V14.01,2013-04-07 01:50:00,
2013-04-06 21:55:00,65.3,59.8,30.15,NE,55,0.0,0.0,82,0.00,,,0.01,VWS V14.01,2013-04-07 01:55:00,
2013-04-06 22:00:00,65.1,59.7,30.15,NE,55,0.0,0.0,83,0.00,,,0.01,VWS V14.01,2013-04-07 02:00:00,
2013-04-06 22:05:00,65.1,59.8,30.15,NE,55,0.0,0.0,83,0.00,,,0.01,VWS V14.01,2013-04-07 02:05:00,
2013-04-06 22:10:00,65.0,59.7,30.15,NE,55,0.0,0.0,83,0.00,,,0.01,VWS V14.01,2013-04-07 02:10:00,
2013-04-06 22:15:00,64.8,59.6,30.15,NE,55,0.0,0.0,83,0.00,,,0.01,VWS V14.01,2013-04-07 02:15:00,
2013-04-06 22:20:00,64.9,59.8,30.15,NE,55,0.0,0.0,84,0.00,,,0.01,VWS V14.01,2013-04-07 02:20:00,
2013-04-06 22:25:00,64.4,59.4,30.15,NE,55,0.0,0.0,84,0.00,,,0.01,VWS V14.01,2013-04-07 02:25:00,
2013-04-06 22:30:00,64.5,59.6,30.15,NE,55,0.0,0.0,84,0.00,,,0.01,VWS V14.01,2013-04-07 02:30:00,
2013-04-06 22:35:00,64.0,59.3,30.15,NE,55,0.0,0.0,85,0.00,,,0.01,VWS V14.01,2013-04-07 02:35:00,
2013-04-06 22:40:00,64.5,59.8,30.15,NE,55,0.0,0.0,85,0.00,,,0.01,VWS V14.01,2013-04-07 02:40:00,
2013-04-06 22:45:00,64.3,59.8,30.15,NE,55,0.0,0.0,85,0.00,,,0.01,VWS V14.01,2013-04-07 02:45:00,
2013-04-06 22:50:00,64.2,59.7,30.16,NE,55,0.0,0.0,85,0.00,,,0.01,VWS V14.01,2013-04-07 02:50:00,
2013-04-06 22:55:00,64.0,59.6,30.16,NE,55,0.0,0.0,86,0.00,,,0.01,VWS V14.01,2013-04-07 02:55:00,
2013-04-06 23:00:00,63.9,59.6,30.16,NE,55,0.0,0.0,86,0.00,,,0.01,VWS V14.01,2013-04-07 03:00:00,
2013-04-06 23:05:00,64.1,59.8,30.16,NE,55,0.0,0.0,86,0.00,,,0.01,VWS V14.01,2013-04-07 03:05:00,
2013-04-06 23:10:00,63.9,59.7,30.16,NE,55,0.0,0.0,86,0.00,,,0.01,VWS V14.01,2013-04-07 03:10:00,
2013-04-06 23:15:00,64.2,60.1,30.16,NE,55,0.0,0.0,86,0.00,,,0.01,VWS V14.01,2013-04-07 03:15:00,
2013-04-06 23:20:00,63.7,59.7,30.16,NE,55,0.0,0.0,87,0.00,,,0.01,VWS V14.01,2013-04-07 03:20:00,
2013-04-06 23:25:00,63.6,59.6,30.16,NE,55,0.0,0.0,87,0.00,,,0.01,VWS V14.01,2013-04-07 03:25:00,
2013-04-06 23:30:00,63.9,59.9,30.16,NE,55,0.0,0.0,87,0.00,,,0.01,VWS V14.01,2013-04-07 03:30:00,
2013-04-06 23:35:00,64.0,60.0,30.16,NE,55,0.0,0.0,87,0.00,,,0.01,VWS V14.01,2013-04-07 03:35:00,
2013-04-06 23:40:00,63.6,59.7,30.16,NE,55,0.0,0.0,87,0.00,,,0.01,VWS V14.01,2013-04-07 03:40:00,
2013-04-06 23:45:00,63.6,59.6,30.16,NE,55,0.0,0.0,87,0.00,,,0.01,VWS V14.01,2013-04-07 03:45:00,
2013-04-06 23:50:00,63.8,59.9,30.15,NE,55,0.0,0.0,87,0.00,,,0.01,VWS V14.01,2013-04-07 03:50:00,
2013-04-06 23:55:00,63.9,60.0,30.15,NE,55,0.0,0.0,87,0.00,,,0.01,VWS V14.01,2013-04-07 03:55:00,